Time;durP1;ratioP1;P1;durP2;ratioP2;P2;SDS_P1;SDS_P2;PMS_P1;PMS_P2;Temp;Humidity;BMP_temperature;BMP_pressure;BME280_temperature;BME280_humidity;BME280_pressure;Samples;Min_cycle;Max_cycle;Signal;HPM_P1;HPM_P2
2021/05/04 00:01:49;;;;;;;0.90;0.57;;;;;;;7.63;51.63;97527.22;5026470;28;20099;-71
2021/05/04 00:04:15;;;;;;;1.60;0.60;;;;;;;7.57;51.80;97518.41;5029084;28;20453;-72
2021/05/04 00:06:41;;;;;;;1.33;0.70;;;;;;;7.50;51.86;97518.03;5030299;28;20049;-71
2021/05/04 00:09:08;;;;;;;0.80;0.70;;;;;;;7.49;51.73;97509.06;5030344;28;20045;-71
2021/05/04 00:11:34;;;;;;;1.92;0.80;;;;;;;7.41;51.62;97509.81;5025425;28;20053;-72
2021/05/04 00:14:00;;;;;;;0.55;0.52;;;;;;;7.45;51.80;97501.84;5030169;28;20061;-71
2021/05/04 00:16:27;;;;;;;1.17;0.60;;;;;;;7.49;51.58;97500.91;5029868;28;20136;-71
2021/05/04 00:18:53;;;;;;;0.60;0.43;;;;;;;7.46;51.79;97506.16;5030001;28;20560;-71
2021/05/04 00:21:19;;;;;;;1.27;0.40;;;;;;;7.50;51.57;97501.72;5008358;28;20136;-71
2021/05/04 00:23:47;;;;;;;2.42;0.63;;;;;;;7.52;51.71;97499.47;5029116;28;20057;-71
2021/05/04 00:26:13;;;;;;;;;;;;;;;7.47;51.42;97500.41;5027345;28;20045;-72
2021/05/04 00:28:39;;;;;;;1.70;0.43;;;;;;;7.47;51.47;97499.63;5017032;28;20437;-71
2021/05/04 00:31:05;;;;;;;2.33;0.40;;;;;;;7.53;51.66;97506.50;5025264;28;20065;-72
2021/05/04 00:33:32;;;;;;;1.17;0.50;;;;;;;7.48;51.88;97503.94;5021933;28;20123;-72
2021/05/04 00:35:58;;;;;;;0.65;0.55;;;;;;;7.49;51.75;97500.91;5009087;28;20049;-71
2021/05/04 00:38:24;;;;;;;2.42;0.60;;;;;;;7.41;51.81;97484.53;5010203;28;20058;-71
2021/05/04 00:40:51;;;;;;;1.23;0.65;;;;;;;7.30;51.71;97479.34;5015054;28;20128;-72
2021/05/04 00:43:17;;;;;;;2.13;0.90;;;;;;;7.31;51.65;97485.59;5014890;28;20046;-71
2021/05/04 00:45:44;;;;;;;2.33;0.77;;;;;;;7.33;51.39;97488.78;5028104;28;20053;-71
2021/05/04 00:48:10;;;;;;;0.70;0.45;;;;;;;7.24;51.26;97489.56;4999322;28;20140;-71
2021/05/04 00:50:37;;;;;;;0.80;0.52;;;;;;;7.19;51.65;97495.13;5016384;28;20054;-72
2021/05/04 00:53:03;;;;;;;1.13;0.63;;;;;;;7.20;51.98;97502.16;5019893;28;20073;-72
2021/05/04 00:55:33;;;;;;;1.85;0.77;;;;;;;7.14;52.03;97478.91;5019032;28;20042;-72
2021/05/04 00:58:00;;;;;;;2.28;0.60;;;;;;;7.06;52.31;97480.47;5020537;28;20038;-72
2021/05/04 01:00:27;;;;;;;1.38;0.47;;;;;;;6.84;52.41;97469.59;5022720;28;20501;-71
2021/05/04 01:02:53;;;;;;;5.00;0.60;;;;;;;6.85;52.50;97482.06;5015422;28;20052;-71
2021/05/04 01:05:19;;;;;;;0.70;0.50;;;;;;;6.62;53.04;97474.69;5018060;28;20462;-71
2021/05/04 01:07:47;;;;;;;1.08;0.55;;;;;;;6.55;52.83;97446.34;5020906;28;20080;-71
2021/05/04 01:10:13;;;;;;;1.80;0.60;;;;;;;6.66;52.76;97461.28;5024148;28;20034;-72
2021/05/04 01:12:39;;;;;;;0.90;0.57;;;;;;;6.56;53.00;97461.50;5018616;28;20336;-72
2021/05/04 01:15:06;;;;;;;1.25;0.57;;;;;;;6.51;53.20;97451.56;5012967;28;20110;-73
2021/05/04 01:17:32;;;;;;;1.58;0.70;;;;;;;6.44;53.64;97451.19;5018848;28;20055;-72
2021/05/04 01:20:09;;;;;;;0.75;0.52;;;;;;;6.23;53.40;97425.28;5015254;28;20449;-72
2021/05/04 01:22:36;;;;;;;4.53;0.70;;;;;;;6.32;53.72;97444.38;5019788;28;20042;-72
2021/05/04 01:25:14;;;;;;;0.95;0.60;;;;;;;6.29;54.04;97441.44;5014723;28;20047;-72
2021/05/04 01:27:41;;;;;;;1.13;0.60;;;;;;;6.22;53.96;97439.97;5020898;28;20050;-72
2021/05/04 01:30:07;;;;;;;1.48;0.77;;;;;;;6.28;53.97;97442.56;5024746;28;20050;-70
2021/05/04 01:32:34;;;;;;;2.05;0.70;;;;;;;6.34;53.64;97436.72;5024996;28;20506;-70
2021/05/04 01:35:00;;;;;;;1.75;0.68;;;;;;;6.46;53.81;97438.13;5021045;28;20045;-72
2021/05/04 01:37:26;;;;;;;1.60;0.50;;;;;;;6.53;53.61;97438.47;5023199;28;20037;-71
2021/05/04 01:39:53;;;;;;;1.17;0.60;;;;;;;6.60;53.58;97433.44;5023967;28;20053;-71
2021/05/04 01:42:24;;;;;;;4.68;0.80;;;;;;;6.51;53.65;97422.53;5028047;28;20283;-70
2021/05/04 01:44:50;;;;;;;1.42;0.60;;;;;;;6.58;53.86;97424.81;5027400;28;20052;-71
2021/05/04 01:47:16;;;;;;;1.02;0.55;;;;;;;6.57;53.73;97423.22;5022256;28;20092;-72
2021/05/04 01:49:43;;;;;;;0.77;0.43;;;;;;;6.75;53.77;97426.06;5020433;28;20516;-72
2021/05/04 01:52:10;;;;;;;1.02;0.57;;;;;;;6.74;53.69;97436.13;5016491;28;20042;-71
2021/05/04 01:54:37;;;;;;;;;;;;;;;6.73;53.77;97426.34;5030947;28;20041;-71
2021/05/04 01:57:05;;;;;;;1.17;0.57;;;;;;;6.75;53.78;97443.16;5020400;28;20459;-72
2021/05/04 01:59:31;;;;;;;1.85;0.60;;;;;;;6.70;53.92;97429.69;5026872;28;20042;-72
2021/05/04 02:01:57;;;;;;;2.05;0.70;;;;;;;6.77;53.96;97427.34;5029082;28;20069;-71
2021/05/04 02:04:24;;;;;;;3.65;0.80;;;;;;;6.70;53.89;97429.69;5021614;28;20041;-71
2021/05/04 02:06:51;;;;;;;0.73;0.63;;;;;;;6.62;54.10;97423.09;5027165;28;20498;-71
2021/05/04 02:09:17;;;;;;;1.00;0.55;;;;;;;6.69;54.24;97421.84;5022354;28;20052;-71
2021/05/04 02:11:43;;;;;;;2.03;0.70;;;;;;;6.61;54.44;97413.34;5019737;28;20518;-72
2021/05/04 02:14:10;;;;;;;2.65;0.60;;;;;;;6.51;54.79;97421.69;5019281;28;20107;-71
2021/05/04 02:16:36;;;;;;;1.05;0.70;;;;;;;6.43;55.26;97398.00;5018214;28;20046;-72
2021/05/04 02:19:03;;;;;;;1.23;0.63;;;;;;;6.44;55.21;97421.34;5023693;28;20050;-71
2021/05/04 02:21:29;;;;;;;0.93;0.70;;;;;;;6.29;55.59;97419.75;5022838;28;20052;-71
2021/05/04 02:23:55;;;;;;;5.22;1.00;;;;;;;6.36;55.60;97412.78;5021097;28;20397;-71
2021/05/04 02:26:21;;;;;;;1.55;0.65;;;;;;;6.29;55.59;97417.03;5019453;28;20102;-72
2021/05/04 02:28:48;;;;;;;2.72;0.80;;;;;;;6.34;55.49;97415.00;5022016;28;20042;-70
2021/05/04 02:31:15;;;;;;;1.13;0.68;;;;;;;6.39;55.69;97408.66;5026762;28;20057;-72
2021/05/04 02:33:42;;;;;;;1.88;0.52;;;;;;;6.31;55.78;97407.47;5025321;28;20045;-71
2021/05/04 02:36:09;;;;;;;1.45;0.60;;;;;;;6.27;55.99;97406.50;5022138;28;20418;-72
2021/05/04 02:38:36;;;;;;;4.07;0.80;;;;;;;6.28;55.75;97408.09;5020296;28;20038;-72
2021/05/04 02:41:03;;;;;;;2.20;0.73;;;;;;;6.35;55.66;97400.31;5024638;28;20054;-71
2021/05/04 02:43:30;;;;;;;1.23;0.60;;;;;;;6.24;55.89;97415.22;5020599;28;20050;-71
2021/05/04 02:45:56;;;;;;;1.10;0.60;;;;;;;6.26;55.73;97398.66;5016318;28;20046;-72
2021/05/04 02:48:23;;;;;;;1.00;0.60;;;;;;;6.34;55.69;97412.28;5023323;28;20084;-71
2021/05/04 02:50:49;;;;;;;2.28;0.77;;;;;;;6.37;55.67;97410.88;5028232;28;20128;-72
2021/05/04 02:53:16;;;;;;;1.73;0.70;;;;;;;6.32;55.35;97406.38;5024263;28;20422;-72
2021/05/04 02:55:42;;;;;;;0.65;0.50;;;;;;;6.36;55.49;97404.66;5021200;28;20061;-71
2021/05/04 02:58:08;;;;;;;3.90;0.80;;;;;;;6.40;55.53;97413.00;5022515;28;20049;-71
2021/05/04 03:00:35;;;;;;;3.35;0.60;;;;;;;6.36;55.68;97410.06;5025353;28;20081;-71
2021/05/04 03:03:01;;;;;;;4.55;0.63;;;;;;;6.41;55.34;97405.66;5005585;28;20418;-72
2021/05/04 03:05:28;;;;;;;1.17;0.40;;;;;;;6.42;55.27;97401.84;5019527;28;20069;-72
2021/05/04 03:07:54;;;;;;;3.13;0.70;;;;;;;5.94;55.29;97344.22;5022725;28;20045;-71
2021/05/04 03:10:22;;;;;;;0.38;0.35;;;;;;;6.43;55.27;97401.50;5020620;28;20491;-71
2021/05/04 03:12:48;;;;;;;1.75;0.75;;;;;;;6.46;55.11;97411.75;5016075;28;20054;-71
2021/05/04 03:15:15;;;;;;;1.27;0.88;;;;;;;6.50;54.84;97420.09;5022890;28;20080;-71
2021/05/04 03:17:41;;;;;;;1.60;0.70;;;;;;;6.50;54.93;97404.63;5019669;28;20069;-71
2021/05/04 03:20:08;;;;;;;2.22;0.60;;;;;;;6.54;55.32;97415.66;5003088;28;20480;-71
2021/05/04 03:22:36;;;;;;;7.20;0.80;;;;;;;6.62;54.79;97414.94;5023393;28;20075;-71
2021/05/04 03:25:02;;;;;;;1.48;0.75;;;;;;;6.59;55.24;97412.84;5020157;28;20460;-72
2021/05/04 03:27:28;;;;;;;4.72;0.90;;;;;;;6.63;54.39;97408.41;5020321;28;20050;-72
2021/05/04 03:29:54;;;;;;;3.72;1.55;;;;;;;6.53;54.44;97424.91;5022988;28;20049;-70
2021/05/04 03:32:20;;;;;;;3.25;0.50;;;;;;;6.57;54.32;97420.50;5025184;28;20056;-72
2021/05/04 03:34:46;;;;;;;1.70;0.60;;;;;;;6.57;54.05;97416.97;5021403;28;20045;-71
2021/05/04 03:37:12;;;;;;;1.65;0.75;;;;;;;6.45;54.80;97402.00;5018396;28;20050;-71
2021/05/04 03:39:39;;;;;;;1.08;0.50;;;;;;;6.42;54.58;97410.78;5021332;28;20054;-71
2021/05/04 03:42:05;;;;;;;13.40;1.02;;;;;;;6.71;54.35;97414.19;5018435;28;20104;-71
2021/05/04 03:44:32;;;;;;;2.13;0.68;;;;;;;6.75;54.58;97404.34;5020001;28;20611;-71
2021/05/04 03:46:58;;;;;;;4.68;0.43;;;;;;;6.72;54.41;97408.47;5038175;28;20058;-72
2021/05/04 03:49:24;;;;;;;3.17;0.52;;;;;;;6.58;54.76;97411.22;5025132;28;20519;-72
2021/05/04 03:51:50;;;;;;;0.88;0.50;;;;;;;6.43;55.39;97411.59;5016618;28;20108;-71
2021/05/04 03:54:16;;;;;;;0.63;0.30;;;;;;;6.33;55.74;97412.63;5018608;28;20045;-71
2021/05/04 03:56:43;;;;;;;1.65;0.55;;;;;;;6.41;55.38;97405.66;5024351;28;20042;-72
2021/05/04 03:59:09;;;;;;;1.80;0.70;;;;;;;6.45;55.54;97398.50;5014417;28;20041;-72
2021/05/04 04:01:36;;;;;;;2.80;0.57;;;;;;;6.55;55.39;97402.91;5014644;28;20423;-72
2021/05/04 04:04:03;;;;;;;1.27;0.60;;;;;;;6.73;54.75;97398.41;5019643;28;20034;-72
2021/05/04 04:06:29;;;;;;;1.33;0.52;;;;;;;6.82;54.51;97382.97;5025840;28;20156;-72
2021/05/04 04:08:55;;;;;;;2.85;0.57;;;;;;;6.80;54.70;97385.19;5016489;28;20141;-71
2021/05/04 04:11:21;;;;;;;4.03;0.70;;;;;;;6.54;55.50;97374.94;5022203;28;20132;-72
2021/05/04 04:13:48;;;;;;;1.77;0.68;;;;;;;6.59;55.61;97388.41;5024211;28;20136;-72
2021/05/04 04:16:14;;;;;;;5.68;0.98;;;;;;;6.65;55.65;97370.88;5001022;28;20076;-72
2021/05/04 04:18:41;;;;;;;1.23;0.50;;;;;;;6.51;55.90;97367.41;5017499;28;20046;-72
2021/05/04 04:21:07;;;;;;;4.10;0.50;;;;;;;6.52;55.79;97380.69;5018696;28;20513;-71
2021/05/04 04:23:33;;;;;;;1.20;0.60;;;;;;;6.69;55.67;97371.06;5022471;28;20037;-72
2021/05/04 04:25:59;;;;;;;2.75;0.80;;;;;;;6.54;55.56;97323.34;5016251;28;20080;-73
2021/05/04 04:28:26;;;;;;;2.67;0.60;;;;;;;6.53;55.41;97357.84;5016171;28;20048;-73
2021/05/04 04:30:53;;;;;;;4.00;0.60;;;;;;;6.51;55.25;97360.06;5018116;28;20128;-72
2021/05/04 04:33:23;;;;;;;1.58;0.60;;;;;;;6.62;55.40;97341.63;5018982;28;20136;-71
2021/05/04 04:35:49;;;;;;;1.80;0.85;;;;;;;7.00;54.51;97355.91;5018752;28;20069;-71
2021/05/04 04:38:15;;;;;;;2.25;0.70;;;;;;;7.15;53.46;97355.50;5024396;28;20126;-71
2021/05/04 04:40:43;;;;;;;3.55;0.75;;;;;;;7.26;53.95;97345.19;5026726;28;20127;-72
2021/05/04 04:43:09;;;;;;;1.05;0.60;;;;;;;7.43;53.59;97352.59;5026290;28;20037;-71
2021/05/04 04:45:35;;;;;;;3.20;0.68;;;;;;;7.37;53.23;97340.28;5029140;28;20057;-72
2021/05/04 04:48:03;;;;;;;2.15;0.68;;;;;;;7.35;53.30;97354.16;5026357;28;20413;-71
2021/05/04 04:50:29;;;;;;;4.47;1.00;;;;;;;7.44;53.28;97350.69;5029043;28;20063;-71
2021/05/04 04:52:55;;;;;;;7.75;1.25;;;;;;;7.42;53.22;97342.84;5030317;28;20061;-68
2021/05/04 04:55:21;;;;;;;1.35;0.63;;;;;;;7.34;53.71;97344.41;5024511;28;20050;-68
2021/05/04 04:57:47;;;;;;;1.45;0.60;;;;;;;7.22;54.22;97350.44;5023707;28;20045;-68
2021/05/04 05:00:14;;;;;;;1.08;0.43;;;;;;;7.07;55.47;97351.63;5022746;28;20049;-69
2021/05/04 05:02:41;;;;;;;1.13;0.60;;;;;;;6.81;57.22;97354.19;5024384;28;20076;-68
2021/05/04 05:05:09;;;;;;;4.03;0.73;;;;;;;6.62;58.39;97362.53;5026746;28;20136;-68
2021/05/04 05:07:35;;;;;;;3.17;1.83;;;;;;;6.64;58.49;97357.63;5023501;28;20065;-69
2021/05/04 05:10:01;;;;;;;2.17;0.70;;;;;;;6.81;58.69;97360.44;5027730;28;20573;-69
2021/05/04 05:12:30;;;;;;;1.90;0.93;;;;;;;7.13;58.21;97367.81;5027212;28;20509;-69
2021/05/04 05:15:00;;;;;;;3.83;1.10;;;;;;;7.35;57.98;97353.38;5023982;28;20048;-67
2021/05/04 05:17:27;;;;;;;3.70;1.10;;;;;;;7.50;57.75;97360.31;5024107;28;20091;-69
2021/05/04 05:19:53;;;;;;;9.82;0.95;;;;;;;7.43;57.93;97351.81;5028142;28;20037;-70
2021/05/04 05:22:20;;;;;;;3.20;1.10;;;;;;;7.62;57.33;97348.81;5026312;28;20521;-68
2021/05/04 05:24:47;;;;;;;12.95;1.20;;;;;;;7.52;57.80;97349.91;5018704;28;20049;-65
2021/05/04 05:27:13;;;;;;;4.40;0.90;;;;;;;7.77;57.28;97337.50;5026523;28;20045;-66
2021/05/04 05:29:39;;;;;;;3.08;1.10;;;;;;;7.83;56.96;97345.53;5029639;28;20132;-67
2021/05/04 05:32:06;;;;;;;4.80;1.00;;;;;;;7.70;57.14;97345.34;5037973;28;20058;-66
2021/05/04 05:34:31;;;;;;;5.68;1.17;;;;;;;7.57;57.37;97335.38;5028417;28;20049;-71
2021/05/04 05:36:58;;;;;;;7.85;0.90;;;;;;;7.30;57.75;97338.00;5024207;28;20445;-74
2021/05/04 05:39:25;;;;;;;2.08;1.00;;;;;;;7.13;57.82;97325.13;5014839;28;20069;-75
2021/05/04 05:41:51;;;;;;;4.57;1.17;;;;;;;7.28;57.61;97331.28;4998581;28;20056;-73
2021/05/04 05:44:18;;;;;;;2.83;0.90;;;;;;;7.17;57.93;97328.03;5013282;28;20399;-75
2021/05/04 05:46:44;;;;;;;4.15;0.70;;;;;;;7.19;57.31;97333.94;5014352;28;20038;-75
2021/05/04 05:49:10;;;;;;;14.65;1.15;;;;;;;7.17;57.26;97317.94;5014668;28;20046;-74
2021/05/04 05:51:37;;;;;;;7.65;1.02;;;;;;;7.31;56.97;97336.88;5014628;28;20124;-75
2021/05/04 05:54:04;;;;;;;5.73;1.40;;;;;;;7.05;57.24;97340.28;5013995;28;20060;-73
2021/05/04 05:56:31;;;;;;;7.30;2.03;;;;;;;6.52;56.28;97325.56;5012293;28;20048;-75
2021/05/04 05:58:57;;;;;;;4.00;0.95;;;;;;;6.83;55.79;97334.88;5012606;28;20309;-75
2021/05/04 06:01:24;;;;;;;0.75;0.57;;;;;;;6.97;55.36;97334.78;4997650;28;20112;-74
2021/05/04 06:03:51;;;;;;;9.90;1.10;;;;;;;6.87;53.72;97325.81;5028309;28;20441;-75
2021/05/04 06:06:18;;;;;;;5.60;0.80;;;;;;;7.05;53.55;97336.78;5012839;28;20052;-73
2021/05/04 06:08:45;;;;;;;21.50;3.47;;;;;;;6.96;52.83;97328.56;5032670;28;20181;-75
2021/05/04 06:11:11;;;;;;;7.60;0.77;;;;;;;6.89;52.03;97318.16;5017530;28;20073;-75
2021/05/04 06:13:39;;;;;;;5.30;1.02;;;;;;;7.04;51.07;97330.53;5016816;28;20137;-75
2021/05/04 06:16:07;;;;;;;11.95;0.85;;;;;;;7.28;49.89;97325.84;5035423;28;20493;-73
2021/05/04 06:18:33;;;;;;;8.73;0.90;;;;;;;7.34;49.83;97330.03;5020716;28;20042;-74
2021/05/04 06:20:59;;;;;;;2.50;0.82;;;;;;;7.45;49.77;97336.00;5026429;28;20045;-75
2021/05/04 06:23:25;;;;;;;3.08;0.60;;;;;;;7.47;49.99;97325.59;5020294;28;20045;-76
2021/05/04 06:25:51;;;;;;;10.00;0.80;;;;;;;7.70;48.77;97326.31;5027758;28;20095;-74
2021/05/04 06:28:18;;;;;;;4.93;0.68;;;;;;;7.96;47.50;97325.56;5033733;28;20076;-73
2021/05/04 06:30:45;;;;;;;9.13;1.70;;;;;;;8.28;46.72;97322.69;5031734;28;20152;-71
2021/05/04 06:33:13;;;;;;;2.58;0.50;;;;;;;8.40;47.35;97324.75;5028843;28;20091;-71
2021/05/04 06:35:41;;;;;;;3.50;0.70;;;;;;;8.29;47.08;97318.84;5030712;28;20080;-71
2021/05/04 06:38:12;;;;;;;4.25;0.80;;;;;;;8.41;45.83;97312.75;5031550;28;20445;-71
2021/05/04 06:40:39;;;;;;;4.03;0.43;;;;;;;8.27;46.01;97308.25;5031500;28;20053;-74
2021/05/04 06:43:05;;;;;;;5.00;0.63;;;;;;;8.13;46.40;97315.81;5026258;28;20048;-73
2021/05/04 06:45:31;;;;;;;2.05;0.70;;;;;;;8.01;46.71;97325.41;5031136;28;20049;-74
2021/05/04 06:47:59;;;;;;;4.68;0.70;;;;;;;7.73;47.61;97316.72;5029887;28;20045;-72
2021/05/04 06:50:26;;;;;;;2.45;0.60;;;;;;;7.70;47.60;97341.81;5029233;28;20534;-71
2021/05/04 06:52:52;;;;;;;5.15;0.90;;;;;;;7.88;47.63;97329.88;5030381;28;20045;-75
2021/05/04 06:55:18;;;;;;;2.20;0.70;;;;;;;7.80;47.60;97328.75;5029935;28;20053;-75
2021/05/04 06:57:46;;;;;;;6.47;0.50;;;;;;;7.86;47.23;97326.63;5030640;28;20158;-73
2021/05/04 07:00:14;;;;;;;3.65;0.60;;;;;;;7.58;47.66;97343.22;5027450;28;20136;-75
2021/05/04 07:02:40;;;;;;;0.98;0.40;;;;;;;7.77;47.28;97344.88;5028440;28;20049;-66
2021/05/04 07:05:09;;;;;;;6.70;0.52;;;;;;;7.52;48.17;97350.72;5032535;28;20132;-70
2021/05/04 07:07:38;;;;;;;2.72;0.70;;;;;;;7.40;47.96;97353.25;5015683;28;20406;-69
2021/05/04 07:10:08;;;;;;;17.40;0.95;;;;;;;7.50;47.16;97361.13;5012840;28;20092;-71
2021/05/04 07:12:34;;;;;;;6.03;0.80;;;;;;;7.52;47.13;97358.06;5038286;28;20488;-72
2021/05/04 07:15:00;;;;;;;0.57;0.45;;;;;;;7.36;48.43;97346.84;5032613;28;20459;-69
2021/05/04 07:17:28;;;;;;;4.38;0.60;;;;;;;7.42;48.73;97356.44;5031911;28;20060;-73
2021/05/04 07:19:55;;;;;;;4.80;0.90;;;;;;;7.34;49.81;97355.28;5028116;28;20152;-69
2021/05/04 07:22:25;;;;;;;8.57;1.25;;;;;;;7.33;50.25;97367.28;5037475;28;20060;-72
2021/05/04 07:24:51;;;;;;;16.52;1.20;;;;;;;7.00;51.71;97345.03;5028508;28;20038;-70
2021/05/04 07:27:18;;;;;;;10.75;1.00;;;;;;;6.69;54.97;97383.81;5014584;28;20050;-71
2021/05/04 07:29:44;;;;;;;12.70;1.38;;;;;;;6.67;56.10;97379.50;5022887;28;20054;-69
2021/05/04 07:32:16;;;;;;;6.47;0.73;;;;;;;6.58;56.69;97394.94;5028123;28;20041;-72
2021/05/04 07:34:43;;;;;;;7.88;0.68;;;;;;;6.92;55.66;97390.88;5024273;28;20073;-71
2021/05/04 07:37:09;;;;;;;1.80;0.70;;;;;;;7.18;55.57;97373.94;5036828;28;20071;-73
2021/05/04 07:39:38;;;;;;;2.78;0.55;;;;;;;7.09;55.40;97378.50;5030728;28;20033;-72
2021/05/04 07:42:04;;;;;;;2.55;0.60;;;;;;;7.30;53.83;97389.66;5027618;28;20502;-72
2021/05/04 07:44:32;;;;;;;3.53;0.98;;;;;;;7.65;52.86;97386.28;5028535;28;20045;-70
2021/05/04 07:47:01;;;;;;;1.13;0.55;;;;;;;7.77;52.46;97385.69;5020646;28;20104;-74
2021/05/04 07:50:03;;;;;;;4.65;0.93;;;;;;;7.54;52.91;97355.06;5021057;28;20521;-70
2021/05/04 07:52:23;;;;;;;5.72;1.02;;;;;;;7.83;53.54;97398.00;5020325;28;20051;-72
2021/05/04 07:54:53;;;;;;;5.47;1.00;;;;;;;8.05;52.86;97380.78;5039253;28;20044;-71
2021/05/04 07:57:21;;;;;;;5.40;0.93;;;;;;;8.32;52.36;97403.41;5021035;28;20433;-71
2021/05/04 07:59:53;;;;;;;3.67;0.80;;;;;;;8.42;52.38;97396.84;5024411;28;20045;-70
2021/05/04 08:02:23;;;;;;;5.07;0.80;;;;;;;8.40;52.25;97395.56;5021166;28;20462;-72
2021/05/04 08:04:52;;;;;;;3.50;0.90;;;;;;;8.40;52.26;97395.56;5017683;28;20069;-72
2021/05/04 08:07:21;;;;;;;2.10;0.80;;;;;;;8.60;51.43;97394.97;5029249;28;20065;-73
2021/05/04 08:09:55;;;;;;;3.55;0.80;;;;;;;8.53;51.54;97385.69;5020512;28;20497;-73
2021/05/04 08:12:23;;;;;;;1.38;0.60;;;;;;;8.30;51.43;97383.06;5026120;28;20049;-71
2021/05/04 08:14:52;;;;;;;0.63;0.40;;;;;;;7.89;52.21;97387.78;5020172;28;20149;-71
2021/05/04 08:17:23;;;;;;;1.80;0.47;;;;;;;7.70;51.56;97377.97;5031378;28;20158;-68
2021/05/04 08:27:05;;;;;;;7.25;1.58;;;;;;;6.94;55.09;97383.22;5020935;28;20212;-71
2021/05/04 08:29:36;;;;;;;1.58;0.60;;;;;;;4.58;65.79;97415.47;5016948;28;20049;-71
2021/05/04 08:32:03;;;;;;;12.32;1.15;;;;;;;4.82;67.17;97436.22;5015922;28;20100;-72
2021/05/04 08:34:31;;;;;;;;;;;;;;;5.37;65.91;97437.50;5009704;28;20528;-72
2021/05/04 08:37:00;;;;;;;8.50;0.90;;;;;;;5.48;63.76;97430.81;5008553;28;20024;-73
2021/05/04 08:39:27;;;;;;;11.07;1.90;;;;;;;5.25;64.15;97459.66;5022608;28;20405;-73
2021/05/04 08:41:54;;;;;;;1.60;0.80;;;;;;;5.58;63.60;97464.22;5017163;28;20050;-72
2021/05/04 08:44:26;;;;;;;43.05;3.70;;;;;;;5.93;62.17;97446.50;5034914;28;20102;-72
2021/05/04 08:46:53;;;;;;;2.42;0.77;;;;;;;6.26;60.60;97450.22;5027088;28;20057;-73
2021/05/04 08:49:20;;;;;;;1.95;0.45;;;;;;;6.29;59.61;97455.03;5024753;28;20112;-73
2021/05/04 08:51:50;;;;;;;2.15;0.90;;;;;;;6.64;58.63;97453.44;5017081;28;20099;-76
2021/05/04 08:54:23;;;;;;;0.55;0.40;;;;;;;7.05;57.02;97440.03;5042255;28;20144;-73
2021/05/04 08:56:51;;;;;;;3.60;0.55;;;;;;;7.31;55.92;97447.53;5040488;28;20057;-73
2021/05/04 08:59:22;;;;;;;0.98;0.50;;;;;;;7.31;54.17;97442.09;5033919;28;20060;-74
2021/05/04 09:01:48;;;;;;;;;;;;;;;7.41;53.21;97444.56;5027691;28;20054;-74
2021/05/04 09:04:26;;;;;;;5.43;0.73;;;;;;;7.27;51.51;97435.69;5027381;28;19932;-74
2021/05/04 09:06:55;;;;;;;4.03;0.75;;;;;;;7.50;51.65;97445.41;5025706;28;20494;-71
2021/05/04 09:09:30;;;;;;;3.15;0.80;;;;;;;7.69;52.78;97452.53;5014728;28;20565;-71
2021/05/04 09:12:17;;;;;;;0.88;0.60;;;;;;;7.47;54.50;97456.09;5020632;28;20485;-71
2021/05/04 09:17:31;;;;;;;1.80;0.73;;;;;;;7.66;55.52;97445.00;5033306;28;20083;-71
2021/05/04 09:20:08;;;;;;;2.40;0.70;;;;;;;7.59;55.13;97459.06;5017705;28;20510;-71
2021/05/04 09:23:05;;;;;;;1.70;0.63;;;;;;;7.33;54.39;97432.53;5036210;28;20099;-72
2021/05/04 09:25:33;;;;;;;2.58;0.80;;;;;;;7.34;54.28;97446.94;5025834;28;20115;-74
2021/05/04 09:28:01;;;;;;;2.15;0.70;;;;;;;7.30;54.39;97433.16;5014763;28;20652;-70
2021/05/04 09:30:30;;;;;;;4.10;0.85;;;;;;;7.45;53.96;97448.25;5014984;28;20518;-71
2021/05/04 09:33:00;;;;;;;3.95;0.60;;;;;;;7.50;53.50;97447.31;5027904;28;20068;-72
2021/05/04 09:35:30;;;;;;;3.50;0.70;;;;;;;7.40;53.20;97445.66;5019884;28;20057;-73
2021/05/04 09:38:04;;;;;;;3.60;0.75;;;;;;;7.31;53.34;97469.28;5031174;28;20049;-72
2021/05/04 09:40:34;;;;;;;4.05;0.90;;;;;;;7.16;54.38;97479.41;5026368;28;20037;-73
2021/05/04 09:43:08;;;;;;;6.03;0.60;;;;;;;6.64;57.05;97496.09;5028831;28;20140;-74
2021/05/04 09:45:38;;;;;;;2.67;1.02;;;;;;;6.50;59.29;97458.91;5031459;28;20195;-74
2021/05/04 09:48:20;;;;;;;3.75;0.88;;;;;;;5.51;64.04;97465.44;5029316;28;20502;-72
2021/05/04 09:51:00;;;;;;;1.92;0.80;;;;;;;5.61;64.15;97474.47;5010366;28;20052;-72
2021/05/04 09:53:36;;;;;;;2.17;0.95;;;;;;;5.46;64.20;97484.47;5028577;28;20143;-72
2021/05/04 09:56:03;;;;;;;10.25;1.17;;;;;;;6.30;61.04;97479.16;5023486;28;20042;-73
2021/05/04 09:58:34;;;;;;;2.90;1.00;;;;;;;6.71;59.85;97473.94;5025306;28;20068;-68
2021/05/04 10:01:03;;;;;;;4.95;1.52;;;;;;;6.61;60.42;97492.06;5021732;28;20056;-69
2021/05/04 10:03:29;;;;;;;11.55;2.13;;;;;;;6.16;61.85;97495.44;5009748;28;20540;-68
2021/05/04 10:05:59;;;;;;;3.80;0.80;;;;;;;5.82;61.05;97494.72;5028517;28;20528;-68
2021/05/04 10:08:27;;;;;;;10.85;1.67;;;;;;;6.04;60.47;97501.38;5029906;28;20045;-66
2021/05/04 10:10:54;;;;;;;7.88;0.55;;;;;;;6.31;59.72;97505.19;5046342;28;20378;-66
2021/05/04 10:13:23;;;;;;;2.25;0.60;;;;;;;6.51;58.38;97489.56;5037095;28;20076;-66
2021/05/04 10:15:50;;;;;;;1.02;0.45;;;;;;;6.87;57.43;97496.13;5029263;28;20064;-67
2021/05/04 10:18:18;;;;;;;4.88;0.70;;;;;;;6.93;57.89;97487.56;5041166;28;20048;-69
2021/05/04 10:20:45;;;;;;;1.02;0.55;;;;;;;7.03;58.15;97500.09;5030317;28;20145;-68
2021/05/04 10:23:12;;;;;;;2.22;0.60;;;;;;;7.16;58.69;97517.47;5036420;28;20524;-71
2021/05/04 10:25:51;;;;;;;2.95;1.20;;;;;;;7.45;58.29;97516.22;5017876;28;20098;-71
2021/05/04 10:28:18;;;;;;;6.43;0.93;;;;;;;7.01;58.06;97515.09;5030817;28;20050;-70
2021/05/04 10:30:45;;;;;;;5.90;0.93;;;;;;;7.05;58.44;97529.69;5031898;28;20077;-69
2021/05/04 10:33:27;;;;;;;1.00;0.55;;;;;;;6.27;63.17;97536.75;5030591;28;20505;-68
2021/05/04 10:35:54;;;;;;;6.25;1.08;;;;;;;6.56;62.32;97542.97;5019938;28;20042;-70
2021/05/04 10:38:20;;;;;;;3.60;0.98;;;;;;;6.95;61.07;97531.53;5038143;28;20046;-68
2021/05/04 10:40:57;;;;;;;5.40;1.10;;;;;;;7.51;60.69;97539.47;5028757;28;20072;-71
2021/05/04 10:43:38;;;;;;;8.80;1.38;;;;;;;7.24;59.97;97533.03;5028461;28;20102;-69
2021/05/04 10:46:09;;;;;;;2.80;1.00;;;;;;;7.40;59.05;97532.66;5028245;28;20143;-70
2021/05/04 10:48:48;;;;;;;4.60;0.80;;;;;;;6.96;58.31;97529.63;5022595;28;20054;-69
2021/05/04 10:51:15;;;;;;;2.00;0.90;;;;;;;6.42;60.28;97532.91;5023152;28;20041;-70
2021/05/04 10:54:03;;;;;;;2.78;1.10;;;;;;;6.93;59.05;97535.66;5019253;28;20038;-67
2021/05/04 10:56:39;;;;;;;5.18;0.80;;;;;;;7.28;57.59;97535.94;5008631;28;20422;-69
2021/05/04 10:59:08;;;;;;;9.82;1.10;;;;;;;7.00;56.67;97525.19;5019038;28;20181;-69
2021/05/04 11:01:36;;;;;;;13.57;1.13;;;;;;;6.78;55.63;97543.03;5029543;28;20054;-71
2021/05/04 11:04:06;;;;;;;8.50;1.10;;;;;;;6.58;57.43;97538.03;5012138;28;20081;-71
2021/05/04 11:06:45;;;;;;;6.35;0.68;;;;;;;6.73;58.22;97551.28;5014713;28;20053;-71
2021/05/04 11:09:14;;;;;;;1.10;0.70;;;;;;;6.87;59.14;97553.19;5026060;28;20153;-71
2021/05/04 11:11:45;;;;;;;3.35;0.90;;;;;;;6.81;59.00;97561.44;5019126;28;20050;-69
2021/05/04 11:14:30;;;;;;;9.25;2.05;;;;;;;5.94;63.01;97575.59;5020583;28;20057;-71
2021/05/04 11:17:14;;;;;;;11.13;1.65;;;;;;;6.07;64.48;97597.66;5025982;28;20057;-72
2021/05/04 11:19:46;;;;;;;8.50;0.98;;;;;;;5.18;65.47;97579.25;5018924;28;20073;-69
2021/05/04 11:22:24;;;;;;;7.93;0.90;;;;;;;5.47;64.15;97589.13;5016786;28;20046;-69
2021/05/04 11:24:57;;;;;;;1.30;0.80;;;;;;;5.61;63.78;97591.06;5026640;28;20481;-70
2021/05/04 11:27:29;;;;;;;12.00;1.38;;;;;;;5.94;62.83;97575.59;5014712;28;20060;-70
2021/05/04 11:30:01;;;;;;;4.80;0.90;;;;;;;5.87;62.11;97580.59;5015806;28;20049;-70
2021/05/04 11:32:44;;;;;;;2.95;0.73;;;;;;;6.08;61.33;97561.28;5024972;28;20410;-69
2021/05/04 11:35:16;;;;;;;5.15;1.10;;;;;;;6.38;61.65;97599.78;5025759;28;20050;-71
2021/05/04 11:37:48;;;;;;;3.83;0.90;;;;;;;6.07;63.42;97613.91;5001145;28;20407;-69
2021/05/04 11:40:21;;;;;;;5.15;0.93;;;;;;;6.07;62.14;97575.94;5023877;28;20041;-72
2021/05/04 11:42:50;;;;;;;4.10;1.02;;;;;;;6.65;60.61;97593.53;5010322;28;20625;-71
2021/05/04 11:45:19;;;;;;;1.70;0.60;;;;;;;6.20;61.25;97579.75;5026820;28;20521;-70
2021/05/04 11:47:51;;;;;;;7.35;1.13;;;;;;;6.49;60.67;97582.22;5011433;28;20053;-69
2021/05/04 11:50:20;;;;;;;1.70;0.63;;;;;;;6.83;60.17;97587.50;5020373;28;20050;-67
2021/05/04 11:52:48;;;;;;;1.35;0.82;;;;;;;7.18;58.71;97579.66;5018960;28;20051;-69
2021/05/04 11:55:23;;;;;;;3.40;0.70;;;;;;;7.01;58.13;97574.88;5031859;28;20045;-70
2021/05/04 11:57:57;;;;;;;3.42;0.68;;;;;;;7.24;58.26;97573.81;5015965;28;20057;-72